Time;durP1;ratioP1;P1;durP2;ratioP2;P2;SDS_P1;SDS_P2;PMS_P1;PMS_P2;Temp;Humidity;BMP_temperature;BMP_pressure;BME280_temperature;BME280_humidity;BME280_pressure;Samples;Min_cycle;Max_cycle;Signal;HPM_P1;HPM_P2
2021/10/27 00:01:11;;;;;;;49.43;25.17;;;8.10;99.90;;;;;;5253627;28;20257;-65
2021/10/27 00:03:43;;;;;;;55.87;25.80;;;8.10;99.90;;;;;;5270592;28;20243;-67
2021/10/27 00:06:15;;;;;;;54.57;27.03;;;8.20;99.90;;;;;;5236560;28;20207;-65
2021/10/27 00:08:49;;;;;;;53.80;26.27;;;8.20;99.90;;;;;;5270771;28;20228;-67
2021/10/27 00:11:21;;;;;;;46.93;25.27;;;8.20;99.90;;;;;;5253443;28;20253;-66
2021/10/27 00:13:56;;;;;;;43.03;24.83;;;8.20;99.90;;;;;;5253091;28;20274;-67
2021/10/27 00:16:29;;;;;;;48.80;24.83;;;8.20;99.90;;;;;;5253852;28;20231;-67
2021/10/27 00:19:03;;;;;;;49.87;24.20;;;8.20;99.90;;;;;;5271036;28;20239;-67
2021/10/27 00:21:36;;;;;;;42.03;23.77;;;8.20;99.90;;;;;;5253642;28;20525;-69
2021/10/27 00:24:08;;;;;;;46.13;23.27;;;8.20;99.90;;;;;;5270591;28;20822;-65
2021/10/27 00:26:43;;;;;;;46.00;24.17;;;8.20;99.90;;;;;;5236398;28;20215;-65
2021/10/27 00:29:17;;;;;;;47.60;24.20;;;8.20;99.90;;;;;;5236420;28;20223;-64
2021/10/27 00:31:52;;;;;;;50.87;25.30;;;8.20;99.90;;;;;;5253720;28;20211;-65
2021/10/27 00:34:26;;;;;;;49.07;24.33;;;8.20;99.90;;;;;;5270689;28;20243;-65
2021/10/27 00:37:00;;;;;;;47.30;25.30;;;8.20;99.90;;;;;;5270514;28;20251;-68
2021/10/27 00:39:34;;;;;;;46.37;23.57;;;8.20;99.90;;;;;;5269641;28;20250;-65
2021/10/27 00:42:06;;;;;;;47.63;23.87;;;8.20;99.90;;;;;;5269806;28;20555;-67
2021/10/27 00:44:43;;;;;;;44.20;22.10;;;8.20;99.90;;;;;;5270266;28;20584;-68
2021/10/27 00:47:17;;;;;;;47.53;23.90;;;8.20;99.90;;;;;;5270569;28;20228;-67
2021/10/27 00:49:50;;;;;;;46.00;22.20;;;8.20;99.90;;;;;;5270190;28;20231;-65
2021/10/27 00:52:22;;;;;;;46.30;23.23;;;8.20;99.90;;;;;;5270437;28;20227;-64
2021/10/27 00:54:54;;;;;;;46.83;22.93;;;8.20;99.90;;;;;;5270787;28;20578;-67
2021/10/27 00:57:30;;;;;;;45.50;23.43;;;8.10;99.90;;;;;;5270313;28;20211;-66
2021/10/27 01:00:05;;;;;;;47.60;22.90;;;8.20;99.90;;;;;;5253137;28;20701;-66
2021/10/27 01:02:40;;;;;;;49.80;23.53;;;8.10;99.90;;;;;;5252503;28;20536;-66
2021/10/27 01:05:16;;;;;;;44.30;23.03;;;8.10;99.90;;;;;;5252093;28;20231;-65
2021/10/27 01:07:48;;;;;;;41.10;21.90;;;8.10;99.90;;;;;;5269849;28;20198;-66
2021/10/27 01:10:20;;;;;;;47.77;21.67;;;8.10;99.90;;;;;;5235878;28;20231;-66
2021/10/27 01:12:56;;;;;;;46.00;23.03;;;8.10;99.90;;;;;;5270239;28;20223;-68
2021/10/27 01:15:31;;;;;;;47.63;23.13;;;8.10;99.90;;;;;;5269644;28;20224;-70
2021/10/27 01:18:03;;;;;;;45.80;22.47;;;8.20;99.90;;;;;;5252302;28;20214;-65
2021/10/27 01:20:35;;;;;;;44.23;22.97;;;8.10;99.90;;;;;;5269861;28;20215;-66
2021/10/27 01:23:07;;;;;;;42.57;23.40;;;8.20;99.90;;;;;;5269944;28;20204;-67
2021/10/27 01:25:41;;;;;;;44.33;22.23;;;8.10;99.90;;;;;;5252147;28;20655;-65
2021/10/27 01:28:13;;;;;;;42.43;22.77;;;8.10;99.90;;;;;;5269547;28;20195;-67
2021/10/27 01:30:45;;;;;;;43.00;22.33;;;8.10;99.90;;;;;;5269738;28;20228;-69
2021/10/27 01:33:18;;;;;;;49.03;23.73;;;8.10;99.90;;;;;;5252337;28;20188;-68
2021/10/27 01:35:50;;;;;;;47.97;22.53;;;8.20;99.90;;;;;;5269739;28;20212;-67
2021/10/27 01:38:22;;;;;;;47.17;22.63;;;8.20;99.90;;;;;;5269449;28;20239;-67
2021/10/27 01:40:54;;;;;;;40.10;21.80;;;8.20;99.90;;;;;;5252224;28;20586;-66
2021/10/27 01:43:27;;;;;;;45.30;21.67;;;8.30;99.90;;;;;;5269404;28;20219;-67
2021/10/27 01:46:01;;;;;;;42.90;21.80;;;8.30;99.90;;;;;;5269617;28;20205;-69
2021/10/27 01:48:34;;;;;;;41.73;21.90;;;8.30;99.90;;;;;;5269316;28;20210;-66
2021/10/27 01:51:06;;;;;;;40.47;21.37;;;8.30;99.90;;;;;;5269249;28;20200;-67
2021/10/27 01:53:38;;;;;;;42.13;21.60;;;8.20;99.90;;;;;;5269473;28;20599;-66
2021/10/27 01:56:12;;;;;;;43.07;20.80;;;8.20;99.90;;;;;;5252084;28;20512;-66
2021/10/27 01:58:44;;;;;;;39.10;21.37;;;8.20;99.90;;;;;;5270130;28;20194;-69
2021/10/27 02:01:17;;;;;;;41.27;21.67;;;8.20;99.90;;;;;;5251629;28;20200;-64
2021/10/27 02:03:51;;;;;;;46.80;21.87;;;8.10;99.90;;;;;;5269492;28;20243;-68
2021/10/27 02:06:23;;;;;;;41.53;20.33;;;8.20;99.90;;;;;;5269331;28;20195;-69
2021/10/27 02:08:55;;;;;;;40.63;21.40;;;8.10;99.90;;;;;;5269591;28;20228;-67
2021/10/27 02:11:30;;;;;;;38.23;20.20;;;8.10;99.90;;;;;;5252230;28;20208;-67
2021/10/27 02:14:02;;;;;;;41.50;19.80;;;8.10;99.90;;;;;;5269311;28;20203;-68
2021/10/27 02:16:37;;;;;;;40.93;20.23;;;8.10;99.90;;;;;;5269381;28;20204;-66
2021/10/27 02:19:09;;;;;;;42.63;20.47;;;8.10;99.90;;;;;;5271896;28;20204;-65
2021/10/27 02:21:44;;;;;;;41.27;21.17;;;8.00;99.90;;;;;;5255255;28;20208;-66
2021/10/27 02:24:16;;;;;;;40.73;20.97;;;8.00;99.90;;;;;;5273320;28;20226;-67
2021/10/27 02:26:48;;;;;;;38.27;21.50;;;8.10;99.90;;;;;;5273021;28;20223;-67
2021/10/27 02:29:20;;;;;;;41.57;21.40;;;8.10;99.90;;;;;;5255448;28;20215;-67
2021/10/27 02:31:52;;;;;;;41.30;20.83;;;8.00;99.90;;;;;;5254971;28;20204;-66
2021/10/27 02:34:24;;;;;;;42.23;20.77;;;8.00;99.90;;;;;;5272643;28;20667;-68
2021/10/27 02:36:56;;;;;;;36.37;20.20;;;8.00;99.90;;;;;;5272993;28;20541;-65
2021/10/27 02:39:29;;;;;;;38.73;19.87;;;8.00;99.90;;;;;;5272463;28;20246;-66
2021/10/27 02:42:03;;;;;;;44.47;22.10;;;7.90;99.90;;;;;;5272924;28;20231;-67
2021/10/27 02:44:36;;;;;;;40.63;21.30;;;7.90;99.90;;;;;;5272326;28;20224;-67
2021/10/27 02:47:08;;;;;;;43.03;20.03;;;7.90;99.90;;;;;;5272619;28;20207;-65
2021/10/27 02:49:41;;;;;;;42.97;20.90;;;7.90;99.90;;;;;;5272635;28;20224;-70
2021/10/27 02:52:13;;;;;;;44.60;20.67;;;7.90;99.90;;;;;;5254528;28;20196;-68
2021/10/27 02:54:47;;;;;;;42.50;20.73;;;7.90;99.90;;;;;;5272309;28;20218;-67
2021/10/27 02:57:20;;;;;;;42.50;21.30;;;7.80;99.90;;;;;;5272381;28;20214;-68
2021/10/27 02:59:52;;;;;;;44.93;21.27;;;7.80;99.90;;;;;;5254166;28;20200;-66
2021/10/27 03:02:24;;;;;;;40.60;22.10;;;7.90;99.90;;;;;;5238176;28;20200;-67
2021/10/27 03:04:57;;;;;;;39.17;21.00;;;7.90;99.90;;;;;;5271715;28;20281;-72
2021/10/27 03:07:33;;;;;;;41.73;20.30;;;7.90;99.90;;;;;;5254485;28;20200;-68
2021/10/27 03:10:06;;;;;;;42.07;21.83;;;7.90;99.90;;;;;;5272582;28;20200;-70
2021/10/27 03:12:38;;;;;;;44.37;21.60;;;7.90;99.90;;;;;;5254383;28;20214;-68
2021/10/27 03:15:11;;;;;;;38.70;21.43;;;8.00;99.90;;;;;;5255027;28;20208;-70
2021/10/27 03:17:43;;;;;;;44.50;21.83;;;8.10;99.90;;;;;;5272198;28;20545;-69
2021/10/27 03:20:15;;;;;;;42.43;22.63;;;8.10;99.90;;;;;;5254242;28;20235;-66
2021/10/27 03:22:48;;;;;;;45.77;21.53;;;8.10;99.90;;;;;;5271660;28;20211;-68
2021/10/27 03:25:20;;;;;;;44.20;22.00;;;8.20;99.90;;;;;;5253795;28;20235;-64
2021/10/27 03:27:52;;;;;;;47.33;22.43;;;8.20;99.90;;;;;;5271611;28;20211;-65
2021/10/27 03:30:25;;;;;;;40.40;21.10;;;8.30;99.90;;;;;;5271329;28;20228;-61
2021/10/27 03:32:57;;;;;;;44.77;21.17;;;8.30;99.90;;;;;;5271679;28;20204;-66
2021/10/27 03:35:29;;;;;;;45.23;21.33;;;8.30;99.90;;;;;;5271693;28;20773;-67
2021/10/27 03:38:01;;;;;;;39.00;20.40;;;8.30;99.90;;;;;;5271634;28;20705;-66
2021/10/27 03:40:34;;;;;;;45.13;21.20;;;8.40;99.90;;;;;;5271374;28;20242;-67
2021/10/27 03:43:06;;;;;;;39.37;20.67;;;8.40;99.90;;;;;;5271216;28;20215;-68
2021/10/27 03:45:38;;;;;;;39.03;20.27;;;8.40;99.90;;;;;;5271324;28;20228;-69
2021/10/27 03:48:10;;;;;;;42.80;20.70;;;8.40;99.90;;;;;;5253551;28;20226;-67
2021/10/27 03:50:42;;;;;;;39.83;20.63;;;8.50;99.90;;;;;;5253942;28;20220;-68
2021/10/27 03:53:16;;;;;;;41.93;21.17;;;8.50;99.90;;;;;;5271451;28;20619;-69
2021/10/27 03:55:51;;;;;;;37.27;20.20;;;8.50;99.90;;;;;;5271384;28;20238;-71
2021/10/27 03:58:23;;;;;;;42.63;21.23;;;8.50;99.90;;;;;;5253636;28;20204;-70
2021/10/27 04:00:55;;;;;;;37.57;20.67;;;8.50;99.90;;;;;;5270957;28;20235;-73
2021/10/27 04:03:27;;;;;;;41.93;20.77;;;8.50;99.90;;;;;;5253274;28;20268;-70
2021/10/27 04:06:02;;;;;;;37.53;20.70;;;8.60;99.90;;;;;;5270804;28;20242;-72
2021/10/27 04:08:34;;;;;;;39.80;21.43;;;8.60;99.90;;;;;;5270896;28;20630;-67
2021/10/27 04:11:06;;;;;;;35.37;20.13;;;8.60;99.90;;;;;;5253318;28;20667;-67
2021/10/27 04:13:38;;;;;;;44.53;22.40;;;8.60;99.90;;;;;;5270968;28;20207;-71
2021/10/27 04:16:10;;;;;;;40.97;21.07;;;8.60;99.90;;;;;;5270387;28;20232;-69
2021/10/27 04:18:42;;;;;;;39.27;21.70;;;8.50;99.90;;;;;;5270922;28;20223;-68
2021/10/27 04:21:15;;;;;;;42.27;22.00;;;8.50;99.90;;;;;;5270747;28;20239;-69
2021/10/27 04:23:47;;;;;;;41.00;21.53;;;8.50;99.90;;;;;;5252783;28;20211;-72
2021/10/27 04:26:19;;;;;;;43.67;22.40;;;8.50;99.90;;;;;;5270575;28;20243;-69
2021/10/27 04:28:53;;;;;;;43.20;22.17;;;8.40;99.90;;;;;;5252765;28;20211;-68
2021/10/27 04:31:27;;;;;;;38.63;22.83;;;8.40;99.90;;;;;;5270444;28;20572;-68
2021/10/27 04:33:59;;;;;;;42.07;22.67;;;8.40;99.90;;;;;;5268839;28;20530;-69
2021/10/27 04:36:32;;;;;;;39.13;22.27;;;8.30;99.90;;;;;;5248910;28;20217;-69
2021/10/27 04:39:06;;;;;;;44.70;23.23;;;8.20;99.90;;;;;;5260498;28;20228;-73
2021/10/27 04:41:40;;;;;;;45.57;23.37;;;8.20;99.90;;;;;;5269157;28;20276;-71
2021/10/27 04:44:13;;;;;;;45.70;23.67;;;8.20;99.90;;;;;;5251630;28;20223;-70
2021/10/27 04:46:45;;;;;;;45.13;23.83;;;8.20;99.90;;;;;;5269359;28;20215;-68
2021/10/27 04:49:17;;;;;;;47.23;25.03;;;8.30;99.90;;;;;;5269637;28;20207;-70
2021/10/27 04:51:49;;;;;;;54.97;25.67;;;8.30;99.90;;;;;;5269055;28;20660;-66
2021/10/27 04:54:21;;;;;;;50.57;26.67;;;8.30;99.90;;;;;;5251424;28;20620;-68
2021/10/27 04:56:56;;;;;;;49.63;26.80;;;8.40;99.90;;;;;;5269588;28;20239;-69
2021/10/27 04:59:42;;;;;;;45.40;24.47;;;8.40;99.90;;;;;;5252900;28;20209;-69
2021/10/27 05:02:16;;;;;;;48.47;24.70;;;8.40;99.90;;;;;;5269232;28;20306;-69
2021/10/27 05:04:49;;;;;;;50.10;25.70;;;8.40;99.90;;;;;;5269779;28;20663;-68
2021/10/27 05:07:21;;;;;;;56.87;26.60;;;8.50;99.90;;;;;;5269797;28;20224;-70
2021/10/27 05:09:56;;;;;;;46.87;26.17;;;8.50;99.90;;;;;;5270264;28;20188;-67
2021/10/27 05:12:28;;;;;;;47.20;26.90;;;8.60;99.90;;;;;;5235911;28;20227;-66
2021/10/27 05:15:03;;;;;;;44.73;25.13;;;8.60;99.90;;;;;;5251517;28;20207;-66
2021/10/27 05:17:35;;;;;;;54.50;24.87;;;8.70;99.90;;;;;;5251852;28;20597;-67
2021/10/27 05:20:08;;;;;;;52.50;25.70;;;8.70;99.90;;;;;;5270101;28;20204;-64
2021/10/27 05:22:40;;;;;;;51.33;25.13;;;8.70;99.90;;;;;;5251854;28;20231;-68
2021/10/27 05:25:14;;;;;;;49.03;24.50;;;8.70;99.90;;;;;;5252079;28;20224;-66
2021/10/27 05:27:46;;;;;;;48.37;25.33;;;8.70;99.90;;;;;;5269097;28;20219;-68
2021/10/27 05:30:18;;;;;;;49.13;24.30;;;8.80;99.90;;;;;;5269524;28;20208;-68
2021/10/27 05:32:56;;;;;;;53.87;24.40;;;8.80;99.90;;;;;;5269000;28;20227;-67
2021/10/27 05:35:29;;;;;;;51.93;24.60;;;8.90;99.90;;;;;;5269452;28;20192;-65
2021/10/27 05:38:02;;;;;;;48.77;24.23;;;8.90;99.90;;;;;;5229373;28;20259;-66
2021/10/27 05:40:34;;;;;;;52.53;25.40;;;8.90;99.90;;;;;;5265493;28;20604;-65
2021/10/27 05:43:13;;;;;;;53.20;25.47;;;8.90;99.90;;;;;;5265751;28;20188;-70
2021/10/27 05:45:46;;;;;;;50.63;25.40;;;8.90;99.90;;;;;;5220571;28;20535;-72
2021/10/27 05:48:19;;;;;;;56.63;26.27;;;9.00;99.90;;;;;;5269630;28;20200;-68
2021/10/27 05:56:30;;;;;;;52.33;25.53;;;9.00;99.90;;;;;;5274141;28;20495;-70
2021/10/27 05:59:05;;;;;;;60.17;27.17;;;9.00;99.90;;;;;;5273054;28;20211;-68
2021/10/27 06:01:37;;;;;;;54.70;27.00;;;9.10;99.90;;;;;;5254864;28;20192;-67
2021/10/27 06:04:09;;;;;;;53.07;27.40;;;9.10;99.90;;;;;;5255522;28;20211;-69
2021/10/27 06:06:41;;;;;;;55.40;26.10;;;9.10;99.90;;;;;;5255449;28;20212;-65
2021/10/27 06:09:15;;;;;;;55.50;25.00;;;9.10;99.90;;;;;;5250625;28;20207;-69
2021/10/27 06:11:47;;;;;;;50.80;24.60;;;9.10;99.90;;;;;;5229364;28;20327;-65
2021/10/27 06:14:20;;;;;;;57.77;25.37;;;9.10;99.90;;;;;;5254230;28;20619;-67
2021/10/27 06:16:52;;;;;;;53.03;24.47;;;9.20;99.90;;;;;;5255866;28;20196;-69
2021/10/27 06:19:24;;;;;;;50.43;24.10;;;9.20;99.90;;;;;;5255292;28;20212;-67
2021/10/27 06:21:56;;;;;;;55.50;25.30;;;9.20;99.90;;;;;;5202714;28;20227;-68
2021/10/27 06:24:30;;;;;;;53.13;23.43;;;9.20;99.90;;;;;;5186220;28;20278;-66
2021/10/27 06:27:04;;;;;;;53.03;23.27;;;9.30;99.90;;;;;;5255709;28;20702;-68
2021/10/27 06:35:22;;;;;;;55.83;23.80;;;9.40;99.90;;;;;;5274549;28;20639;-67
2021/10/27 06:49:04;;;;;;;46.50;22.37;;;9.60;99.90;;;;;;5257318;28;20203;-68
2021/10/27 06:51:37;;;;;;;42.37;21.23;;;9.70;99.90;;;;;;5271869;28;20238;-70
2021/10/27 06:54:09;;;;;;;43.63;21.00;;;9.60;99.90;;;;;;5254529;28;20227;-72
2021/10/27 06:56:42;;;;;;;43.97;22.00;;;9.60;99.90;;;;;;5223532;28;20656;-70
2021/10/27 07:15:42;;;;;;;40.27;21.47;;;10.00;99.90;;;;;;5186928;28;20211;-65
2021/10/27 07:18:14;;;;;;;41.83;21.90;;;10.00;99.90;;;;;;5171494;28;20213;-67
2021/10/27 07:20:46;;;;;;;38.13;21.37;;;10.10;99.90;;;;;;5200839;28;20215;-65
2021/10/27 07:23:18;;;;;;;42.83;22.27;;;10.20;99.90;;;;;;5254061;28;20576;-67
2021/10/27 07:25:58;;;;;;;43.37;22.17;;;10.20;99.90;;;;;;5237598;28;20232;-67
2021/10/27 07:28:33;;;;;;;38.73;21.90;;;10.30;99.90;;;;;;5232561;28;20234;-66
2021/10/27 07:31:06;;;;;;;42.70;20.40;;;10.30;99.90;;;;;;5263037;28;20565;-68
2021/10/27 07:33:41;;;;;;;40.53;21.13;;;10.40;99.90;;;;;;5274823;28;20521;-67
2021/10/27 07:36:28;;;;;;;38.83;20.23;;;10.40;99.90;;;;;;5292663;28;20206;-67
2021/10/27 07:41:51;;;;;;;37.07;20.60;;;10.40;99.90;;;;;;5277637;28;20213;-69
2021/10/27 07:44:25;;;;;;;39.67;20.33;;;10.40;99.90;;;;;;5292799;28;20211;-68
2021/10/27 07:46:59;;;;;;;38.13;21.17;;;10.50;99.90;;;;;;5274516;28;20230;-68
2021/10/27 07:49:31;;;;;;;40.37;20.37;;;10.50;99.90;;;;;;5293354;28;20206;-68
2021/10/27 07:52:04;;;;;;;38.43;20.47;;;10.50;99.90;;;;;;5279267;28;20192;-69
2021/10/27 07:54:36;;;;;;;34.03;20.03;;;10.60;99.90;;;;;;5271486;28;20204;-68
2021/10/27 07:57:08;;;;;;;38.67;20.40;;;10.60;99.90;;;;;;5271554;28;20208;-66
2021/10/27 07:59:42;;;;;;;36.27;20.50;;;10.70;99.90;;;;;;5191594;28;20518;-67
2021/10/27 08:02:18;;;;;;;34.27;19.87;;;10.70;99.90;;;;;;5186051;28;20542;-67
2021/10/27 08:04:52;;;;;;;37.37;20.70;;;10.70;99.90;;;;;;5185919;28;20255;-68
2021/10/27 08:07:24;;;;;;;39.43;20.40;;;10.70;99.90;;;;;;5253374;28;20221;-72
2021/10/27 08:09:56;;;;;;;38.77;19.83;;;10.80;99.90;;;;;;5186150;28;20238;-66
2021/10/27 08:12:28;;;;;;;38.33;19.03;;;10.80;99.90;;;;;;5253335;28;20203;-68
2021/10/27 08:15:04;;;;;;;34.83;18.80;;;10.80;99.90;;;;;;5185082;28;20231;-69
2021/10/27 08:17:38;;;;;;;30.20;18.63;;;10.80;99.90;;;;;;5185203;28;20206;-67
2021/10/27 08:20:15;;;;;;;32.97;18.90;;;10.80;99.90;;;;;;5252639;28;20230;-69
2021/10/27 08:23:01;;;;;;;31.33;18.63;;;10.80;99.90;;;;;;5185509;28;20303;-68
2021/10/27 08:28:17;;;;;;;29.50;17.07;;;10.90;99.90;;;;;;5185315;28;20203;-70
2021/10/27 08:36:27;;;;;;;30.30;16.93;;;11.00;99.90;;;;;;5269718;28;20216;-68
2021/10/27 08:39:01;;;;;;;29.47;16.83;;;11.10;99.90;;;;;;5241467;28;20232;-68
2021/10/27 08:41:53;;;;;;;27.67;17.00;;;11.10;99.90;;;;;;5269967;28;20200;-66
2021/10/27 08:44:25;;;;;;;25.60;16.60;;;11.20;99.90;;;;;;5200722;28;20226;-69
2021/10/27 08:46:59;;;;;;;29.33;16.67;;;11.30;99.90;;;;;;5252517;28;20570;-69
2021/10/27 08:49:34;;;;;;;30.13;16.47;;;11.30;99.90;;;;;;5269179;28;20221;-67
2021/10/27 08:52:09;;;;;;;25.40;15.63;;;11.30;99.90;;;;;;5243710;28;20211;-65
2021/10/27 08:54:42;;;;;;;30.10;16.43;;;11.30;99.90;;;;;;5212083;28;20207;-69
2021/10/27 08:57:14;;;;;;;27.60;16.53;;;11.40;99.90;;;;;;5169010;28;20287;-67
2021/10/27 08:59:54;;;;;;;27.33;15.30;;;11.40;99.90;;;;;;5184950;28;20612;-70
2021/10/27 09:05:32;;;;;;;25.30;15.20;;;11.30;99.90;;;;;;5270303;28;20203;-70
2021/10/27 09:33:40;;;;;;;24.63;14.13;;;11.40;99.90;;;;;;5274029;28;20228;-69
2021/10/27 10:04:35;;;;;;;17.20;10.83;;;12.60;99.90;;;;;;5200847;28;20231;-68
2021/10/27 10:07:08;;;;;;;19.77;10.80;;;12.60;99.90;;;;;;5273697;28;20536;-68
2021/10/27 10:09:42;;;;;;;20.10;9.53;;;12.70;99.90;;;;;;5187744;28;20259;-69
2021/10/27 10:12:19;;;;;;;19.20;9.83;;;12.80;99.90;;;;;;5273292;28;20527;-68
2021/10/27 10:14:52;;;;;;;13.57;10.00;;;12.90;99.90;;;;;;5182391;28;20215;-68
2021/10/27 10:17:29;;;;;;;17.23;9.33;;;12.90;99.90;;;;;;5248139;28;20200;-71
2021/10/27 10:20:06;;;;;;;12.70;8.93;;;12.80;99.90;;;;;;5273101;28;20228;-68
2021/10/27 10:23:18;;;;;;;13.43;8.47;;;12.80;99.90;;;;;;5258239;28;20196;-67
2021/10/27 10:26:01;;;;;;;12.30;7.63;;;12.70;99.90;;;;;;5270244;28;20243;-69
2021/10/27 10:28:39;;;;;;;13.27;8.20;;;12.70;99.90;;;;;;5272777;28;20188;-70
2021/10/27 10:31:11;;;;;;;10.07;7.67;;;12.70;99.90;;;;;;5272958;28;20204;-69
2021/10/27 10:33:45;;;;;;;12.37;8.27;;;12.60;99.90;;;;;;5273096;28;20207;-70
2021/10/27 10:36:30;;;;;;;12.03;7.57;;;12.60;99.90;;;;;;5272264;28;20214;-72
2021/10/27 10:39:29;;;;;;;10.50;7.20;;;12.70;99.90;;;;;;5271448;28;20251;-68
2021/10/27 10:42:23;;;;;;;9.63;6.60;;;12.70;99.90;;;;;;5211162;28;20203;-66
2021/10/27 10:45:41;;;;;;;11.37;6.67;;;12.60;99.90;;;;;;5275179;28;20238;-70
2021/10/27 10:57:47;;;;;;;10.67;7.17;;;12.40;99.90;;;;;;5293236;28;20224;-68
2021/10/27 11:40:45;;;;;;;16.67;9.47;;;12.10;99.90;;;;;;5229000;28;20196;-70
2021/10/27 11:44:24;;;;;;;18.00;10.43;;;12.10;99.90;;;;;;5271856;28;20242;-68
2021/10/27 11:46:25;;;;;;;15.20;9.87;;;12.10;99.90;;;;;;5257686;28;20219;-67
2021/10/27 11:49:10;;;;;;;20.63;11.30;;;12.10;99.90;;;;;;5254753;28;20543;-69
2021/10/27 11:51:59;;;;;;;17.23;10.33;;;12.10;99.90;;;;;;5253734;28;20337;-65
2021/10/27 11:54:31;;;;;;;17.23;11.03;;;12.10;99.90;;;;;;5271688;28;20185;-67
2021/10/27 11:57:03;;;;;;;15.43;11.10;;;12.10;99.90;;;;;;5270842;28;20230;-65
2021/10/27 11:59:47;;;;;;;22.43;11.87;;;12.10;99.90;;;;;;5270938;28;20639;-68
2021/10/27 12:02:21;;;;;;;21.70;12.77;;;12.10;99.90;;;;;;5270517;28;20203;-68
2021/10/27 12:04:54;;;;;;;22.27;12.47;;;12.10;99.90;;;;;;5270987;28;20207;-71
2021/10/27 12:07:52;;;;;;;22.07;13.83;;;12.10;99.90;;;;;;5270307;28;20216;-72
2021/10/27 12:10:30;;;;;;;20.87;13.07;;;12.10;99.90;;;;;;5270379;28;20188;-67
2021/10/27 12:13:04;;;;;;;23.47;14.67;;;12.00;99.90;;;;;;5270495;28;20208;-70
2021/10/27 12:18:12;;;;;;;22.00;14.00;;;12.10;99.90;;;;;;5266835;28;20218;-69
2021/10/27 12:20:53;;;;;;;26.53;14.63;;;12.10;99.90;;;;;;5270425;28;20212;-70
2021/10/27 12:23:27;;;;;;;24.00;13.23;;;12.10;99.90;;;;;;5270061;28;20631;-69
2021/10/27 12:26:11;;;;;;;22.63;14.37;;;12.10;99.90;;;;;;5240455;28;20208;-73
2021/10/27 12:28:43;;;;;;;25.97;15.07;;;12.10;99.90;;;;;;5269828;28;20199;-69
2021/10/27 12:31:20;;;;;;;24.13;14.63;;;12.00;99.90;;;;;;5270524;28;20310;-71
2021/10/27 12:33:56;;;;;;;25.13;15.03;;;12.00;99.90;;;;;;5257625;28;20206;-70
2021/10/27 12:36:34;;;;;;;26.97;16.43;;;12.00;99.90;;;;;;5252336;28;20187;-73
2021/10/27 12:42:18;;;;;;;24.87;14.87;;;11.90;99.90;;;;;;5184753;28;20207;-70
2021/10/27 12:44:57;;;;;;;24.80;15.40;;;11.90;99.90;;;;;;5183142;28;20210;-71
2021/10/27 12:47:30;;;;;;;23.60;15.30;;;11.90;99.90;;;;;;5184201;28;20207;-70
2021/10/27 12:50:12;;;;;;;23.97;14.77;;;11.90;99.90;;;;;;5184688;28;20226;-66
2021/10/27 12:52:55;;;;;;;26.63;15.40;;;12.00;99.90;;;;;;5184572;28;20663;-68
2021/10/27 12:55:28;;;;;;;27.50;15.83;;;12.00;99.90;;;;;;5201208;28;20192;-68
2021/10/27 12:58:12;;;;;;;27.50;16.17;;;12.00;99.90;;;;;;5267249;28;20208;-70
2021/10/27 13:20:00;;;;;;;28.20;17.07;;;11.80;99.90;;;;;;5267701;28;20192;-67
2021/10/27 13:30:37;;;;;;;30.73;17.27;;;11.80;99.90;;;;;;5259342;28;20628;-70
2021/10/27 13:33:09;;;;;;;35.00;17.77;;;11.80;99.90;;;;;;5269004;28;20235;-66
2021/10/27 13:35:44;;;;;;;31.33;17.90;;;11.80;99.90;;;;;;5269746;28;20200;-68
2021/10/27 13:38:18;;;;;;;29.93;18.27;;;11.80;99.90;;;;;;5251394;28;20258;-73
2021/10/27 13:40:50;;;;;;;28.87;18.57;;;11.80;99.90;;;;;;5268364;28;20194;-71
2021/10/27 13:43:29;;;;;;;28.60;18.23;;;11.80;99.90;;;;;;5267429;28;20252;-66
2021/10/27 14:06:12;;;;;;;27.93;16.93;;;11.90;99.90;;;;;;5249752;28;20516;-69
2021/10/27 14:09:35;;;;;;;22.07;16.50;;;11.90;99.90;;;;;;5268811;28;20188;-68
2021/10/27 14:12:18;;;;;;;26.87;15.93;;;12.00;99.90;;;;;;5269268;28;20203;-67
2021/10/27 14:15:22;;;;;;;24.47;15.87;;;12.00;99.90;;;;;;5229917;28;20527;-68
2021/10/27 15:21:16;;;;;;;16.90;10.90;;;12.30;99.90;;;;;;5236071;28;20585;-71
2021/10/27 15:40:50;;;;;;;15.03;10.87;;;12.40;99.90;;;;;;5225309;28;20232;-65
2021/10/27 15:50:36;;;;;;;15.87;10.57;;;12.40;99.90;;;;;;5253643;28;20527;-70
2021/10/27 15:51:27;;;;;;;17.33;10.77;;;12.40;99.90;;;;;;5271710;28;20545;-67
2021/10/27 15:54:01;;;;;;;15.70;10.50;;;12.40;99.90;;;;;;5271608;28;20538;-67
2021/10/27 15:56:34;;;;;;;21.43;11.03;;;12.40;99.90;;;;;;5268845;28;20218;-68
2021/10/27 15:59:06;;;;;;;17.40;10.73;;;12.40;99.90;;;;;;5236608;28;20697;-66
2021/10/27 16:01:38;;;;;;;17.77;10.97;;;12.40;99.90;;;;;;5252511;28;20215;-67
2021/10/27 16:04:11;;;;;;;17.87;11.40;;;12.30;99.90;;;;;;5270744;28;20307;-69
2021/10/27 16:06:51;;;;;;;15.33;11.10;;;12.30;99.90;;;;;;5268303;28;20197;-73
2021/10/27 16:09:31;;;;;;;13.67;10.60;;;12.30;99.90;;;;;;5271024;28;20231;-72
2021/10/27 16:12:28;;;;;;;17.73;11.03;;;12.30;99.90;;;;;;5270912;28;20230;-71
2021/10/27 16:15:01;;;;;;;14.00;10.17;;;12.30;99.90;;;;;;5270833;28;20247;-66
2021/10/27 16:17:33;;;;;;;14.47;10.30;;;12.30;99.90;;;;;;5236283;28;20204;-67
2021/10/27 16:20:08;;;;;;;15.97;9.83;;;12.30;99.90;;;;;;5253374;28;20515;-68
2021/10/27 16:22:43;;;;;;;15.23;9.23;;;12.30;99.90;;;;;;5271016;28;20536;-66
2021/10/27 16:25:15;;;;;;;18.07;9.67;;;12.30;99.90;;;;;;5270396;28;20212;-69
2021/10/27 16:27:51;;;;;;;15.73;9.27;;;12.30;99.90;;;;;;5254295;28;20526;-69
2021/10/27 16:30:26;;;;;;;15.70;9.33;;;12.30;99.90;;;;;;5252716;28;20662;-67
2021/10/27 16:33:01;;;;;;;15.93;9.13;;;12.30;99.90;;;;;;5270730;28;20517;-66
2021/10/27 16:35:36;;;;;;;12.03;9.17;;;12.30;99.90;;;;;;5270340;28;20323;-70
2021/10/27 16:38:08;;;;;;;14.47;9.57;;;12.30;99.90;;;;;;5273882;28;20265;-68
2021/10/27 16:40:40;;;;;;;10.83;8.10;;;12.30;99.90;;;;;;5268841;28;20224;-66
2021/10/27 16:43:13;;;;;;;12.67;9.47;;;12.30;99.90;;;;;;5251988;28;20211;-66
2021/10/27 16:45:45;;;;;;;13.73;9.30;;;12.30;99.90;;;;;;5270172;28;20579;-68
2021/10/27 16:48:18;;;;;;;16.53;9.10;;;12.30;99.90;;;;;;5252297;28;20251;-66
2021/10/27 16:50:51;;;;;;;15.27;9.30;;;12.40;99.90;;;;;;5270204;28;20235;-64
2021/10/27 16:53:25;;;;;;;15.10;8.63;;;12.40;99.90;;;;;;5252624;28;20196;-66
2021/10/27 16:55:59;;;;;;;14.37;9.57;;;12.40;99.90;;;;;;5269950;28;20228;-68
2021/10/27 16:58:31;;;;;;;15.37;9.37;;;12.40;99.90;;;;;;5252728;28;20223;-65
2021/10/27 17:01:08;;;;;;;17.07;10.13;;;12.40;99.90;;;;;;5195428;28;20219;-70
2021/10/27 17:03:45;;;;;;;15.00;9.47;;;12.40;99.90;;;;;;5269609;28;20214;-67
2021/10/27 17:06:19;;;;;;;17.40;10.17;;;12.40;99.90;;;;;;5270162;28;20241;-71
2021/10/27 17:08:52;;;;;;;17.93;10.13;;;12.40;99.90;;;;;;5186468;28;20243;-71
2021/10/27 17:11:28;;;;;;;19.00;9.83;;;12.40;99.90;;;;;;5172329;28;20592;-68
2021/10/27 17:14:01;;;;;;;12.67;9.60;;;12.40;99.90;;;;;;5269299;28;20207;-69
2021/10/27 17:16:36;;;;;;;14.73;9.77;;;12.40;99.90;;;;;;5252212;28;20235;-68
2021/10/27 17:19:10;;;;;;;14.17;10.27;;;12.30;99.90;;;;;;5270146;28;20196;-66
2021/10/27 17:21:43;;;;;;;13.20;9.70;;;12.30;99.90;;;;;;5252742;28;20232;-67
2021/10/27 17:24:18;;;;;;;15.93;11.17;;;12.30;99.90;;;;;;5268956;28;20203;-68
2021/10/27 17:26:53;;;;;;;16.07;10.20;;;12.30;99.90;;;;;;5221905;28;20227;-68
2021/10/27 17:29:29;;;;;;;15.00;9.13;;;12.30;99.90;;;;;;5265975;28;20663;-68
2021/10/27 17:32:01;;;;;;;13.77;9.27;;;12.30;99.90;;;;;;5231174;28;20228;-70
2021/10/27 17:34:34;;;;;;;15.77;9.63;;;12.30;99.90;;;;;;5248006;28;20211;-68
2021/10/27 17:37:10;;;;;;;14.37;9.93;;;12.30;99.90;;;;;;5247098;28;20237;-68
2021/10/27 17:39:43;;;;;;;13.73;9.53;;;12.30;99.90;;;;;;5230829;28;20259;-69
2021/10/27 17:42:18;;;;;;;16.23;9.43;;;12.30;99.90;;;;;;5248556;28;20311;-70
2021/10/27 17:44:52;;;;;;;14.73;9.13;;;12.30;99.90;;;;;;5230428;28;20205;-69
2021/10/27 17:47:30;;;;;;;12.00;9.03;;;12.30;99.90;;;;;;5231311;28;20232;-66
2021/10/27 17:50:15;;;;;;;13.33;8.63;;;12.30;99.90;;;;;;5235703;28;20204;-67
2021/10/27 17:58:35;;;;;;;17.90;8.83;;;12.30;99.90;;;;;;5273589;28;20231;-65
2021/10/27 18:01:14;;;;;;;13.23;8.83;;;12.30;99.90;;;;;;5274049;28;20211;-67
2021/10/27 18:03:48;;;;;;;16.50;9.37;;;12.30;99.90;;;;;;5272984;28;20309;-68
2021/10/27 18:06:23;;;;;;;10.53;8.10;;;12.30;99.90;;;;;;5253235;28;20203;-69
2021/10/27 18:08:55;;;;;;;11.73;8.33;;;12.30;99.90;;;;;;5272302;28;20238;-68
2021/10/27 18:11:31;;;;;;;12.57;8.03;;;12.30;99.90;;;;;;5255974;28;20203;-65
2021/10/27 18:14:06;;;;;;;12.23;8.53;;;12.30;99.90;;;;;;5273337;28;20216;-70